Time;durP1;ratioP1;P1;durP2;ratioP2;P2;SDS_P1;SDS_P2;PMS_P1;PMS_P2;Temp;Humidity;BMP_temperature;BMP_pressure;BME280_temperature;BME280_humidity;BME280_pressure;Samples;Min_cycle;Max_cycle;Signal;HPM_P1;HPM_P2
2023/07/26 00:00:52;;;;;;;;;;;12.90;99.90;;;;;;5091814;28;20373;-80
2023/07/26 00:03:21;;;;;;;;;;;12.90;99.90;;;;;;5093640;28;19924;-80
2023/07/26 00:05:47;;;;;;;;;;;12.80;99.90;;;;;;5075545;28;20685;-81
2023/07/26 00:08:13;;;;;;;;;;;12.80;99.90;;;;;;5075624;28;19928;-80
2023/07/26 00:10:43;;;;;;;;;;;12.80;99.90;;;;;;5075212;28;19934;-80
2023/07/26 00:13:08;;;;;;;;;;;12.80;99.90;;;;;;5076018;28;19998;-77
2023/07/26 00:15:34;;;;;;;;;;;12.80;99.90;;;;;;5075056;28;19927;-77
2023/07/26 00:17:59;;;;;;;;;;;12.80;99.90;;;;;;5092172;28;19977;-80
2023/07/26 00:20:31;;;;;;;;;;;12.80;99.90;;;;;;5092359;28;19924;-77
2023/07/26 00:23:04;;;;;;;;;;;12.80;99.90;;;;;;5075084;28;19924;-79
2023/07/26 00:25:31;;;;;;;;;;;12.80;99.90;;;;;;5074863;28;20040;-79
2023/07/26 00:27:56;;;;;;;;;;;12.80;99.90;;;;;;5074990;28;19924;-80
2023/07/26 00:30:23;;;;;;;;;;;12.80;99.90;;;;;;5092052;28;19931;-77
2023/07/26 00:32:49;;;;;;;;;;;12.80;99.90;;;;;;5092665;28;19923;-81
2023/07/26 00:35:35;;;;;;;;;;;12.80;99.90;;;;;;5092373;28;19931;-76
2023/07/26 00:38:03;;;;;;;;;;;12.80;99.90;;;;;;5092916;28;19920;-75
2023/07/26 00:40:36;;;;;;;;;;;12.80;99.90;;;;;;5092694;28;19930;-79
2023/07/26 00:43:03;;;;;;;;;;;12.80;99.90;;;;;;5092434;28;19959;-79
2023/07/26 00:45:29;;;;;;;;;;;12.80;99.90;;;;;;5075919;28;19920;-78
2023/07/26 00:47:55;;;;;;;;;;;12.90;99.90;;;;;;5075563;28;19930;-74
2023/07/26 00:50:21;;;;;;;;;;;12.90;99.90;;;;;;5085143;28;19928;-81
2023/07/26 00:52:47;;;;;;;;;;;12.90;99.90;;;;;;5111552;28;19924;-80
2023/07/26 00:55:14;;;;;;;;;;;12.90;99.90;;;;;;5112951;28;19993;-78
2023/07/26 00:57:40;;;;;;;;;;;12.80;99.90;;;;;;5114094;28;20369;-79
2023/07/26 01:00:07;;;;;;;;;;;12.80;99.90;;;;;;5095194;28;19923;-77
2023/07/26 01:02:32;;;;;;;;;;;12.80;99.90;;;;;;5113343;28;19924;-81
2023/07/26 01:04:58;;;;;;;;;;;12.80;99.90;;;;;;5113419;28;19920;-74
2023/07/26 01:07:33;;;;;;;;;;;12.80;99.90;;;;;;5095088;28;19920;-78
2023/07/26 01:10:29;;;;;;;;;;;12.80;99.90;;;;;;5111710;28;19981;-77
2023/07/26 01:12:58;;;;;;;;;;;12.80;99.90;;;;;;5098824;28;20010;-79
2023/07/26 01:15:30;;;;;;;;;;;12.80;99.90;;;;;;5113524;28;19923;-78
2023/07/26 01:18:09;;;;;;;;;;;12.80;99.90;;;;;;5112658;28;20012;-77
2023/07/26 01:20:38;;;;;;;;;;;12.80;99.90;;;;;;5094709;28;19924;-79
2023/07/26 01:23:03;;;;;;;;;;;12.80;99.90;;;;;;5094834;28;19923;-81
2023/07/26 01:25:29;;;;;;;;;;;12.70;99.90;;;;;;5112537;28;19987;-78
2023/07/26 01:27:54;;;;;;;;;;;12.70;99.90;;;;;;5111666;28;19920;-75
2023/07/26 01:30:20;;;;;;;;;;;12.70;99.90;;;;;;5111344;28;19980;-77
2023/07/26 01:32:49;;;;;;;;;;;12.70;99.90;;;;;;5110838;28;19931;-77
2023/07/26 01:35:19;;;;;;;;;;;12.70;99.90;;;;;;5113005;28;19920;-79
2023/07/26 01:37:45;;;;;;;;;;;12.60;99.90;;;;;;5093903;28;19926;-77
2023/07/26 01:40:14;;;;;;;;;;;12.50;99.90;;;;;;5112565;28;19932;-77
2023/07/26 01:42:40;;;;;;;;;;;12.40;99.90;;;;;;5111409;28;19964;-80
2023/07/26 01:45:07;;;;;;;;;;;12.30;99.90;;;;;;5111446;28;19967;-78
2023/07/26 01:47:34;;;;;;;;;;;12.20;99.90;;;;;;5096008;28;19937;-79
2023/07/26 01:50:01;;;;;;;;;;;12.10;99.90;;;;;;5098436;28;20393;-76
2023/07/26 01:52:26;;;;;;;;;;;12.00;99.90;;;;;;5115818;28;19928;-78
2023/07/26 01:54:52;;;;;;;;;;;12.00;99.90;;;;;;5098345;28;19926;-80
2023/07/26 01:57:24;;;;;;;;;;;11.90;99.90;;;;;;5117598;28;19924;-76
2023/07/26 01:59:50;;;;;;;;;;;11.90;99.90;;;;;;5117429;28;19978;-78
2023/07/26 02:02:15;;;;;;;;;;;11.80;99.90;;;;;;5115635;28;20396;-78
2023/07/26 02:04:42;;;;;;;;;;;11.70;99.90;;;;;;5115152;28;19920;-77
2023/07/26 02:07:09;;;;;;;;;;;11.70;99.90;;;;;;5115144;28;19926;-78
2023/07/26 02:09:38;;;;;;;;;;;11.70;99.90;;;;;;5116962;28;19924;-74
2023/07/26 02:12:04;;;;;;;;;;;11.70;99.90;;;;;;5115434;28;19920;-79
2023/07/26 02:14:34;;;;;;;;;;;11.60;99.90;;;;;;5121064;28;19986;-77
2023/07/26 02:16:59;;;;;;;;;;;11.60;99.90;;;;;;5103617;28;19920;-75
2023/07/26 02:19:26;;;;;;;;;;;11.60;99.90;;;;;;5115739;28;19972;-79
2023/07/26 02:21:51;;;;;;;;;;;11.60;99.90;;;;;;5114994;28;19989;-75
2023/07/26 02:24:17;;;;;;;;;;;11.60;99.90;;;;;;5081340;28;19967;-78
2023/07/26 02:26:42;;;;;;;;;;;11.50;99.90;;;;;;5113988;28;20270;-78
2023/07/26 02:29:08;;;;;;;;;;;11.50;99.90;;;;;;5115142;28;19920;-81
2023/07/26 02:31:33;;;;;;;;;;;11.50;99.90;;;;;;5115959;28;19942;-77
2023/07/26 02:33:59;;;;;;;;;;;11.40;99.90;;;;;;5114918;28;19930;-82
2023/07/26 02:36:25;;;;;;;;;;;11.40;99.90;;;;;;5114990;28;19928;-82
2023/07/26 02:38:56;;;;;;;;;;;11.40;99.90;;;;;;5098680;28;20398;-76
2023/07/26 02:41:22;;;;;;;;;;;11.40;99.90;;;;;;5114703;28;19970;-79
2023/07/26 02:43:49;;;;;;;;;;;11.40;99.90;;;;;;5096841;28;19959;-79
2023/07/26 02:46:14;;;;;;;;;;;11.30;99.90;;;;;;5114326;28;20387;-75
2023/07/26 02:48:40;;;;;;;;;;;11.30;99.90;;;;;;5115012;28;20030;-79
2023/07/26 02:51:06;;;;;;;;;;;11.30;99.90;;;;;;5097581;28;20376;-76
2023/07/26 02:53:32;;;;;;;;;;;11.20;99.90;;;;;;5114261;28;19930;-82
2023/07/26 02:55:58;;;;;;;;;;;11.10;99.90;;;;;;5115859;28;19919;-80
2023/07/26 02:58:24;;;;;;;;;;;11.10;99.90;;;;;;5096104;28;19927;-76
2023/07/26 03:00:52;;;;;;;;;;;11.00;99.90;;;;;;5114312;28;19921;-80
2023/07/26 03:03:18;;;;;;;;;;;11.00;99.90;;;;;;5113340;28;20323;-78
2023/07/26 03:05:45;;;;;;;;;;;11.00;99.90;;;;;;5095529;28;20295;-76
2023/07/26 03:08:12;;;;;;;;;;;11.00;99.90;;;;;;5096169;28;20273;-80
2023/07/26 03:10:38;;;;;;;;;;;10.90;99.90;;;;;;5084936;28;19958;-80
2023/07/26 03:13:10;;;;;;;;;;;11.00;99.90;;;;;;5093319;28;19970;-81
2023/07/26 03:15:42;;;;;;;;;;;11.00;99.90;;;;;;5076836;28;19930;-78
2023/07/26 03:18:08;;;;;;;;;;;11.00;99.90;;;;;;5075719;28;20022;-77
2023/07/26 03:20:33;;;;;;;;;;;11.00;99.90;;;;;;5092527;28;19945;-79
2023/07/26 03:22:59;;;;;;;;;;;11.10;99.90;;;;;;5092404;28;19920;-83
2023/07/26 03:25:24;;;;;;;;;;;11.20;99.90;;;;;;5092976;28;19920;-78
2023/07/26 03:27:50;;;;;;;;;;;11.20;99.90;;;;;;5091261;28;19920;-77
2023/07/26 03:30:16;;;;;;;;;;;11.20;99.90;;;;;;5091881;28;19928;-80
2023/07/26 03:32:41;;;;;;;;;;;11.20;99.90;;;;;;5092105;28;19920;-77
2023/07/26 03:35:07;;;;;;;;;;;11.20;99.90;;;;;;5091590;28;19931;-80
2023/07/26 03:37:35;;;;;;;;;;;11.30;99.90;;;;;;5093501;28;19927;-77
2023/07/26 03:40:01;;;;;;;;;;;11.30;99.90;;;;;;5092241;28;19920;-78
2023/07/26 03:42:27;;;;;;;;;;;11.40;99.90;;;;;;5091609;28;20302;-80
2023/07/26 03:44:53;;;;;;;;;;;11.40;99.90;;;;;;5091728;28;20285;-75
2023/07/26 03:47:20;;;;;;;;;;;11.50;99.90;;;;;;5075096;28;19924;-78
2023/07/26 03:49:46;;;;;;;;;;;11.50;99.90;;;;;;5098477;28;19976;-82
2023/07/26 03:52:11;;;;;;;;;;;11.60;99.90;;;;;;5111591;28;19965;-78
2023/07/26 03:54:37;;;;;;;;;;;11.60;99.90;;;;;;5111620;28;19924;-79
2023/07/26 03:57:03;;;;;;;;;;;11.60;99.90;;;;;;5093991;28;19927;-79
2023/07/26 03:59:29;;;;;;;;;;;11.60;99.90;;;;;;5015950;28;2228367;-79
2023/07/26 04:01:55;;;;;;;;;;;11.60;99.90;;;;;;5112175;28;19924;-78
2023/07/26 04:04:22;;;;;;;;;;;11.60;99.90;;;;;;5112860;28;19931;-78
2023/07/26 04:06:47;;;;;;;;;;;11.60;99.90;;;;;;5095823;28;19968;-77
2023/07/26 04:09:13;;;;;;;;;;;11.60;99.90;;;;;;5095731;28;19924;-80
2023/07/26 04:11:38;;;;;;;;;;;11.60;99.90;;;;;;5095083;28;19924;-77
2023/07/26 04:14:04;;;;;;;;;;;11.60;99.90;;;;;;5112896;28;19926;-78
2023/07/26 04:16:29;;;;;;;;;;;11.60;99.90;;;;;;5112523;28;19981;-78
2023/07/26 04:18:55;;;;;;;;;;;11.60;99.90;;;;;;5112073;28;19927;-79
2023/07/26 04:21:21;;;;;;;;;;;11.70;99.90;;;;;;5095251;28;19931;-81
2023/07/26 04:23:46;;;;;;;;;;;11.60;99.90;;;;;;5113205;28;19923;-80
2023/07/26 04:26:12;;;;;;;;;;;11.60;99.90;;;;;;5078319;28;20404;-78
2023/07/26 04:28:38;;;;;;;;;;;11.60;99.90;;;;;;5112731;28;19926;-80
2023/07/26 04:31:04;;;;;;;;;;;11.60;99.90;;;;;;5113041;28;19927;-77
2023/07/26 04:33:30;;;;;;;;;;;11.60;99.90;;;;;;5112709;28;20046;-79
2023/07/26 04:35:57;;;;;;;;;;;11.70;99.90;;;;;;5113139;28;19927;-81
2023/07/26 04:38:25;;;;;;;;;;;11.60;99.90;;;;;;5112294;28;19920;-79
2023/07/26 04:40:51;;;;;;;;;;;11.60;99.90;;;;;;5112077;28;19919;-78
2023/07/26 04:43:19;;;;;;;;;;;11.60;99.90;;;;;;5095104;28;19920;-79
2023/07/26 04:45:48;;;;;;;;;;;11.60;99.90;;;;;;5112554;28;19919;-79
2023/07/26 04:48:15;;;;;;;;;;;11.50;99.90;;;;;;5095193;28;19931;-76
2023/07/26 04:50:41;;;;;;;;;;;11.50;99.90;;;;;;5096059;28;20037;-78
2023/07/26 04:53:08;;;;;;;;;;;11.50;99.90;;;;;;5111380;28;19931;-77
2023/07/26 04:55:39;;;;;;;;;;;11.60;99.90;;;;;;5095825;28;20025;-79
2023/07/26 04:58:05;;;;;;;;;;;11.60;99.90;;;;;;5111814;28;19981;-78
2023/07/26 05:00:32;;;;;;;;;;;11.60;99.90;;;;;;5112645;28;19992;-78
2023/07/26 05:02:57;;;;;;;;;;;11.70;99.90;;;;;;5084318;28;20454;-78
2023/07/26 05:05:29;;;;;;;;;;;11.80;99.90;;;;;;5091401;28;19924;-76
2023/07/26 05:07:56;;;;;;;;;;;11.80;99.90;;;;;;5091463;28;19963;-77
2023/07/26 05:10:23;;;;;;;;;;;11.90;99.90;;;;;;5091474;28;19931;-77
2023/07/26 05:12:50;;;;;;;;;;;12.10;99.90;;;;;;5058325;28;20015;-77
2023/07/26 05:15:16;;;;;;;;;;;12.20;99.90;;;;;;5090716;28;19965;-81
2023/07/26 05:17:41;;;;;;;;;;;12.40;99.90;;;;;;5091019;28;19920;-78
2023/07/26 05:20:07;;;;;;;;;;;12.50;99.90;;;;;;5073825;28;19978;-78
2023/07/26 05:22:34;;;;;;;;;;;12.70;99.90;;;;;;5074224;28;19927;-83
2023/07/26 05:24:59;;;;;;;;;;;12.90;99.90;;;;;;5092203;28;19920;-77
2023/07/26 05:27:25;;;;;;;;;;;13.00;99.90;;;;;;5092038;28;19924;-77
2023/07/26 05:29:53;;;;;;;;;;;13.20;99.90;;;;;;5090871;28;19973;-79
2023/07/26 05:32:19;;;;;;;;;;;13.30;99.90;;;;;;5090797;28;20399;-80
2023/07/26 05:34:44;;;;;;;;;;;13.40;99.90;;;;;;5091273;28;19924;-75
2023/07/26 05:37:16;;;;;;;;;;;13.50;99.90;;;;;;5091268;28;20007;-80
2023/07/26 05:39:41;;;;;;;;;;;13.70;99.90;;;;;;5091314;28;19977;-78
2023/07/26 05:42:07;;;;;;;;;;;13.80;99.90;;;;;;5090435;28;19919;-79
2023/07/26 05:44:34;;;;;;;;;;;13.80;99.90;;;;;;5091194;28;19920;-81
2023/07/26 05:46:59;;;;;;;;;;;13.80;99.90;;;;;;5073760;28;20365;-76
2023/07/26 05:49:25;;;;;;;;;;;13.70;99.90;;;;;;5090187;28;19981;-79
2023/07/26 05:51:50;;;;;;;;;;;13.70;99.90;;;;;;5074160;28;19928;-76
2023/07/26 05:54:16;;;;;;;;;;;13.60;99.90;;;;;;5073720;28;19951;-75
2023/07/26 05:56:42;;;;;;;;;;;13.50;99.90;;;;;;5074150;28;19924;-81
2023/07/26 05:59:08;;;;;;;;;;;13.50;99.90;;;;;;5099731;28;19924;-82
2023/07/26 06:01:33;;;;;;;;;;;13.40;99.90;;;;;;5111143;28;20029;-79
2023/07/26 06:03:59;;;;;;;;;;;13.40;99.90;;;;;;5093971;28;19920;-78
2023/07/26 06:06:25;;;;;;;;;;;13.30;99.90;;;;;;5110939;28;19920;-77
2023/07/26 06:08:51;;;;;;;;;;;13.20;99.90;;;;;;5112338;28;19923;-76
2023/07/26 06:11:23;;;;;;;;;;;13.20;99.90;;;;;;5110883;28;19972;-82
2023/07/26 06:13:49;;;;;;;;;;;13.20;99.90;;;;;;5094043;28;19920;-77
2023/07/26 06:16:15;;;;;;;;;;;13.10;99.90;;;;;;5094055;28;20797;-78
2023/07/26 06:18:44;;;;;;;;;;;13.10;99.90;;;;;;5112477;28;20373;-79
2023/07/26 06:21:11;;;;;;;;;;;13.10;99.90;;;;;;5093469;28;20014;-81
2023/07/26 06:23:38;;;;;;;;;;;13.10;99.90;;;;;;5111017;28;19928;-76
2023/07/26 06:26:04;;;;;;;;;;;13.10;99.90;;;;;;5110711;28;19927;-77
2023/07/26 06:28:29;;;;;;;;;;;13.10;99.90;;;;;;5113418;28;19919;-79
2023/07/26 06:30:55;;;;;;;;;;;13.10;99.90;;;;;;5097908;28;19924;-77
2023/07/26 06:33:21;;;;;;;;;;;13.20;99.90;;;;;;5113877;28;19934;-77
2023/07/26 06:35:47;;;;;;;;;;;13.30;99.90;;;;;;5098831;28;19920;-73
2023/07/26 06:38:12;;;;;;;;;;;13.40;99.90;;;;;;5114405;28;19979;-79
2023/07/26 06:40:38;;;;;;;;;;;13.70;99.90;;;;;;5098839;28;19923;-83
2023/07/26 06:43:05;;;;;;;;;;;14.00;99.90;;;;;;5116687;28;19927;-78
2023/07/26 06:45:32;;;;;;;;;;;14.20;99.90;;;;;;5115576;28;20370;-76
2023/07/26 06:47:58;;;;;;;;;;;14.30;99.90;;;;;;5098568;28;19969;-79
2023/07/26 06:50:24;;;;;;;;;;;14.40;99.90;;;;;;5116379;28;19928;-81
2023/07/26 06:52:50;;;;;;;;;;;14.50;99.90;;;;;;5114746;28;19920;-80
2023/07/26 06:55:19;;;;;;;;;;;14.60;99.90;;;;;;5114261;28;19928;-81
2023/07/26 06:57:44;;;;;;;;;;;14.70;99.90;;;;;;5114214;28;19976;-78
2023/07/26 07:00:12;;;;;;;;;;;14.70;99.90;;;;;;5113785;28;20381;-78
2023/07/26 07:02:39;;;;;;;;;;;14.70;99.90;;;;;;5114917;28;19931;-76
2023/07/26 07:05:11;;;;;;;;;;;14.80;99.90;;;;;;5114284;28;20028;-76
2023/07/26 07:07:37;;;;;;;;;;;15.00;99.90;;;;;;5113931;28;19947;-80
2023/07/26 07:10:04;;;;;;;;;;;15.10;99.90;;;;;;5115360;28;20365;-79
2023/07/26 07:12:30;;;;;;;;;;;15.20;99.90;;;;;;5113779;28;20321;-75
2023/07/26 07:14:55;;;;;;;;;;;15.00;99.90;;;;;;5097193;28;19919;-78
2023/07/26 07:17:21;;;;;;;;;;;15.20;99.90;;;;;;5113722;28;19924;-77
2023/07/26 07:19:46;;;;;;;;;;;15.40;99.90;;;;;;5113819;28;19924;-80
2023/07/26 07:22:12;;;;;;;;;;;15.40;99.90;;;;;;5113346;28;20017;-76
2023/07/26 07:24:38;;;;;;;;;;;15.10;99.90;;;;;;5113281;28;19924;-76
2023/07/26 07:27:05;;;;;;;;;;;15.10;99.90;;;;;;5113779;28;19998;-76
2023/07/26 07:29:34;;;;;;;;;;;14.90;99.90;;;;;;5113320;28;19938;-77
2023/07/26 07:32:00;;;;;;;;;;;15.10;99.90;;;;;;5096658;28;20012;-78
2023/07/26 07:34:25;;;;;;;;;;;14.90;99.90;;;;;;5096556;28;20352;-76
2023/07/26 07:36:54;;;;;;;;;;;14.90;99.90;;;;;;5113296;28;20376;-78
2023/07/26 07:39:19;;;;;;;;;;;15.20;99.90;;;;;;5113228;28;19930;-78
2023/07/26 07:41:46;;;;;;;;;;;15.20;99.90;;;;;;5096327;28;19920;-75
2023/07/26 07:44:12;;;;;;;;;;;15.70;99.90;;;;;;5112352;28;20009;-80
2023/07/26 07:46:40;;;;;;;;;;;;;;;;;;5112194;28;20343;-78
2023/07/26 07:49:06;;;;;;;;;;;15.80;99.90;;;;;;5112712;28;19981;-80
2023/07/26 07:51:32;;;;;;;;;;;16.10;99.90;;;;;;5113041;28;19959;-76
2023/07/26 07:54:00;;;;;;;;;;;16.30;99.90;;;;;;5113189;28;19927;-82
2023/07/26 07:56:27;;;;;;;;;;;16.40;99.90;;;;;;5095671;28;19924;-78
2023/07/26 07:58:53;;;;;;;;;;;16.50;99.90;;;;;;5096387;28;19969;-76
2023/07/26 08:01:19;;;;;;;;;;;16.40;99.90;;;;;;5113431;28;19924;-76
2023/07/26 08:03:45;;;;;;;;;;;16.30;99.90;;;;;;5114100;28;20014;-80
2023/07/26 08:06:12;;;;;;;;;;;16.20;99.90;;;;;;5096682;28;19968;-79
2023/07/26 08:08:38;;;;;;;;;;;16.10;99.90;;;;;;5095883;28;19926;-76
2023/07/26 08:11:10;;;;;;;;;;;16.00;99.90;;;;;;5113253;28;19931;-81
2023/07/26 08:13:35;;;;;;;;;;;16.10;99.90;;;;;;5113281;28;19920;-77
2023/07/26 08:16:03;;;;;;;;;;;16.00;99.90;;;;;;5113052;28;20387;-80
2023/07/26 08:18:30;;;;;;;;;;;15.90;99.90;;;;;;5095550;28;19924;-78
2023/07/26 08:20:55;;;;;;;;;;;16.00;99.90;;;;;;5095631;28;19926;-81
2023/07/26 08:23:21;;;;;;;;;;;16.00;99.90;;;;;;5111946;28;20002;-79
2023/07/26 08:25:49;;;;;;;;;;;16.10;99.90;;;;;;5113945;28;20272;-81
2023/07/26 08:28:21;;;;;;;;;;;16.20;99.90;;;;;;5112311;28;20272;-75
2023/07/26 08:30:48;;;;;;;;;;;16.40;99.90;;;;;;5112475;28;20011;-82
2023/07/26 08:33:13;;;;;;;;;;;16.60;99.90;;;;;;5112324;28;19927;-81
2023/07/26 08:35:44;;;;;;;;;;;16.70;99.90;;;;;;5096037;28;19927;-78
2023/07/26 08:38:11;;;;;;;;;;;16.90;99.90;;;;;;5111655;28;20042;-79
2023/07/26 08:40:36;;;;;;;;;;;17.00;99.90;;;;;;5111901;28;20014;-81
2023/07/26 08:43:03;;;;;;;;;;;17.10;99.90;;;;;;5078307;28;20292;-79
2023/07/26 08:45:29;;;;;;;;;;;17.20;99.90;;;;;;5094631;28;20014;-79
2023/07/26 08:47:55;;;;;;;;;;;17.20;99.90;;;;;;5113823;28;19967;-80
2023/07/26 08:50:21;;;;;;;;;;;17.30;99.90;;;;;;5111641;28;20007;-78
2023/07/26 08:52:48;;;;;;;;;;;17.40;99.90;;;;;;5095103;28;19953;-79
2023/07/26 08:55:14;;;;;;;;;;;17.40;99.90;;;;;;5112142;28;20334;-79
2023/07/26 08:57:40;;;;;;;;;;;17.30;99.90;;;;;;5111341;28;19988;-77
2023/07/26 09:00:07;;;;;;;;;;;17.20;99.90;;;;;;5094750;28;19928;-81
2023/07/26 09:02:33;;;;;;;;;;;17.20;99.90;;;;;;5111280;28;19923;-81
2023/07/26 09:04:59;;;;;;;;;;;17.10;99.90;;;;;;5094812;28;19966;-79
2023/07/26 09:07:26;;;;;;;;;;;17.30;99.90;;;;;;5094356;28;20371;-78
2023/07/26 09:09:52;;;;;;;;;;;17.30;99.90;;;;;;5112493;28;19969;-79
2023/07/26 09:12:27;;;;;;;;;;;17.30;99.90;;;;;;5111334;28;20554;-77
2023/07/26 09:14:54;;;;;;;;;;;17.20;99.90;;;;;;5094724;28;20383;-81
2023/07/26 09:17:19;;;;;;;;;;;17.10;99.90;;;;;;5094235;28;19973;-79
2023/07/26 09:19:45;;;;;;;;;;;17.10;99.90;;;;;;5112002;28;19967;-78
2023/07/26 09:22:10;;;;;;;;;;;17.10;99.90;;;;;;5094048;28;19924;-78
2023/07/26 09:24:37;;;;;;;;;;;17.20;99.90;;;;;;5111627;28;19928;-77
2023/07/26 09:27:04;;;;;;;;;;;17.20;99.90;;;;;;5094704;28;19920;-79
2023/07/26 09:29:29;;;;;;;;;;;17.30;99.90;;;;;;5094829;28;20816;-80
2023/07/26 09:31:55;;;;;;;;;;;17.50;99.90;;;;;;5094045;28;20030;-80
2023/07/26 09:34:22;;;;;;;;;;;17.90;99.90;;;;;;5112080;28;19923;-82
2023/07/26 09:36:57;;;;;;;;;;;18.30;99.90;;;;;;5112561;28;19928;-78
2023/07/26 09:39:25;;;;;;;;;;;18.60;99.90;;;;;;5111579;28;19920;-76
2023/07/26 09:42:04;;;;;;;;;;;18.80;99.90;;;;;;5111400;28;20489;-81
2023/07/26 09:44:30;;;;;;;;;;;18.90;99.90;;;;;;5098475;28;20396;-81
2023/07/26 09:46:56;;;;;;;;;;;18.90;99.90;;;;;;5090538;28;19924;-76
2023/07/26 09:49:29;;;;;;;;;;;18.90;99.90;;;;;;5077756;28;19920;-80
2023/07/26 09:51:57;;;;;;;;;;;18.90;99.90;;;;;;5110869;28;20651;-80
2023/07/26 09:54:27;;;;;;;;;;;19.00;99.90;;;;;;5093891;28;19963;-78
2023/07/26 09:56:56;;;;;;;;;;;19.20;99.90;;;;;;5111493;28;19924;-79
2023/07/26 09:59:27;;;;;;;;;;;19.40;99.90;;;;;;5111969;28;20292;-77
2023/07/26 10:01:54;;;;;;;;;;;19.40;99.90;;;;;;5077526;28;20265;-82
2023/07/26 10:04:36;;;;;;;;;;;19.40;99.90;;;;;;5111155;28;20306;-79
2023/07/26 10:07:04;;;;;;;;;;;19.30;99.90;;;;;;5112965;28;19976;-79
2023/07/26 10:09:32;;;;;;;;;;;19.30;99.90;;;;;;5097581;28;19920;-76
2023/07/26 10:11:58;;;;;;;;;;;19.10;99.90;;;;;;5115777;28;20458;-78
2023/07/26 10:14:25;;;;;;;;;;;18.70;99.90;;;;;;5115456;28;19964;-77
2023/07/26 10:16:53;;;;;;;;;;;18.50;99.90;;;;;;5115314;28;19919;-78
2023/07/26 10:19:19;;;;;;;;;;;18.50;99.90;;;;;;5115758;27;20007;-82
2023/07/26 10:21:46;;;;;;;;;;;18.40;99.90;;;;;;5116522;27;20486;-78
2023/07/26 10:24:14;;;;;;;;;;;18.30;99.90;;;;;;5115627;28;19924;-81
2023/07/26 10:26:42;;;;;;;;;;;18.10;99.90;;;;;;5099707;28;19920;-80
2023/07/26 10:29:17;;;;;;;;;;;17.70;99.90;;;;;;5116607;28;19929;-81
2023/07/26 10:31:44;;;;;;;;;;;17.40;99.90;;;;;;5115582;28;19924;-78
2023/07/26 10:34:17;;;;;;;;;;;17.40;99.90;;;;;;5115933;28;19923;-79
2023/07/26 10:36:43;;;;;;;;;;;17.40;99.90;;;;;;5115121;28;20536;-81
2023/07/26 10:39:09;;;;;;;;;;;17.90;99.90;;;;;;5115427;28;19931;-77
2023/07/26 10:41:35;;;;;;;;;;;18.10;99.90;;;;;;5115844;28;19923;-79
2023/07/26 10:44:04;;;;;;;;;;;18.30;99.90;;;;;;5115072;28;19920;-79
2023/07/26 10:46:52;;;;;;;;;;;18.40;99.90;;;;;;5116026;28;20355;-80
2023/07/26 10:49:20;;;;;;;;;;;18.50;99.90;;;;;;5113750;28;19924;-78
2023/07/26 10:51:50;;;;;;;;;;;18.60;99.90;;;;;;5114286;28;19924;-78
2023/07/26 10:54:31;;;;;;;;;;;18.60;99.90;;;;;;5097642;28;19963;-79
2023/07/26 10:57:16;;;;;;;;;;;18.40;99.90;;;;;;5115205;28;19923;-76
2023/07/26 10:59:50;;;;;;;;;;;18.10;99.90;;;;;;5114195;28;19978;-81
2023/07/26 11:02:32;;;;;;;;;;;17.50;99.90;;;;;;5114116;28;19920;-76
2023/07/26 11:04:59;;;;;;;;;;;16.90;99.90;;;;;;5114055;28;19920;-80
2023/07/26 11:07:44;;;;;;;;;;;15.80;99.90;;;;;;5113411;28;19977;-80
2023/07/26 11:10:17;;;;;;;;;;;14.90;99.90;;;;;;5114119;28;20452;-82
2023/07/26 11:12:43;;;;;;;;;;;;;;;;;;5115296;28;20368;-80
2023/07/26 11:15:09;;;;;;;;;;;14.20;99.90;;;;;;5096800;28;19951;-81
2023/07/26 11:17:39;;;;;;;;;;;14.10;99.90;;;;;;5113754;28;19934;-81
2023/07/26 11:20:05;;;;;;;;;;;14.10;99.90;;;;;;5113351;28;20280;-81
2023/07/26 11:22:30;;;;;;;;;;;14.10;99.90;;;;;;5096753;28;19924;-79
2023/07/26 11:25:01;;;;;;;;;;;14.20;99.90;;;;;;5113227;28;19927;-80
2023/07/26 11:27:27;;;;;;;;;;;14.20;99.90;;;;;;5113078;28;20338;-79
2023/07/26 11:29:52;;;;;;;;;;;14.20;99.90;;;;;;5113355;28;19924;-81
2023/07/26 11:32:24;;;;;;;;;;;14.20;99.90;;;;;;5096486;28;19930;-79
2023/07/26 11:34:54;;;;;;;;;;;14.20;99.90;;;;;;5114280;28;19924;-82
2023/07/26 11:37:20;;;;;;;;;;;14.30;99.90;;;;;;5113099;28;19920;-80
2023/07/26 11:39:45;;;;;;;;;;;14.40;99.90;;;;;;5113121;28;20297;-80
2023/07/26 11:42:17;;;;;;;;;;;14.40;99.90;;;;;;5096978;28;19924;-80
2023/07/26 11:44:43;;;;;;;;;;;14.40;99.90;;;;;;5095653;28;19953;-79
2023/07/26 11:47:09;;;;;;;;;;;14.50;99.90;;;;;;5113922;28;19920;-81
2023/07/26 11:49:35;;;;;;;;;;;14.70;99.90;;;;;;5112688;28;19920;-78
2023/07/26 11:52:00;;;;;;;;;;;15.00;99.90;;;;;;5113366;28;19920;-79
2023/07/26 11:54:26;;;;;;;;;;;15.40;99.90;;;;;;5113193;28;20476;-80
2023/07/26 11:56:52;;;;;;;;;;;15.70;99.90;;;;;;5095510;28;20025;-80
2023/07/26 11:59:18;;;;;;;;;;;16.00;99.90;;;;;;5112280;28;20010;-80
2023/07/26 12:01:45;;;;;;;;;;;16.20;99.90;;;;;;5094988;28;19924;-79
2023/07/26 12:04:13;;;;;;;;;;;16.40;99.90;;;;;;5095581;28;19920;-81
2023/07/26 12:06:40;;;;;;;;;;;16.70;99.90;;;;;;5113093;28;19949;-79
2023/07/26 12:09:09;;;;;;;;;;;17.10;99.90;;;;;;5112458;28;19920;-81
2023/07/26 12:11:57;;;;;;;;;;;17.40;99.90;;;;;;5078930;28;19970;-82
2023/07/26 12:14:31;;;;;;;;;;;17.60;99.90;;;;;;5075426;28;19924;-77
2023/07/26 12:17:12;;;;;;;;;;;17.90;99.90;;;;;;5093379;28;19931;-78
2023/07/26 12:19:43;;;;;;;;;;;18.30;99.90;;;;;;5074600;28;19927;-79
2023/07/26 12:22:09;;;;;;;;;;;18.60;99.90;;;;;;5075178;28;19928;-81
2023/07/26 12:24:53;;;;;;;;;;;18.90;99.90;;;;;;5091900;28;19931;-79
2023/07/26 12:27:20;;;;;;;;;;;18.90;99.90;;;;;;5091648;28;19931;-79
2023/07/26 12:29:45;;;;;;;;;;;18.80;99.90;;;;;;5074323;28;19924;-79
2023/07/26 12:32:16;;;;;;;;;;;18.50;99.90;;;;;;5093309;28;19948;-78
2023/07/26 12:34:42;;;;;;;;;;;18.10;99.90;;;;;;5111384;28;19923;-78
2023/07/26 12:37:09;;;;;;;;;;;17.80;99.90;;;;;;5112380;28;20441;-82
2023/07/26 12:39:37;;;;;;;;;;;17.60;99.90;;;;;;5094282;28;20011;-78
2023/07/26 12:42:04;;;;;;;;;;;17.40;99.90;;;;;;5094575;28;19924;-80
2023/07/26 12:44:29;;;;;;;;;;;17.30;99.90;;;;;;5111593;28;20575;-80
2023/07/26 12:46:55;;;;;;;;;;;17.40;99.90;;;;;;5111552;28;19930;-82
2023/07/26 12:49:20;;;;;;;;;;;17.40;99.90;;;;;;5111161;28;19931;-78
2023/07/26 12:51:47;;;;;;;;;;;17.40;99.90;;;;;;5111596;28;19934;-80
2023/07/26 12:54:13;;;;;;;;;;;17.30;99.90;;;;;;5111960;28;20288;-78
2023/07/26 12:56:38;;;;;;;;;;;17.20;99.90;;;;;;5112047;28;19926;-79
2023/07/26 12:59:04;;;;;;;;;;;17.10;99.90;;;;;;5077507;28;19931;-80
2023/07/26 13:01:30;;;;;;;;;;;17.10;99.90;;;;;;5093669;28;19930;-79
2023/07/26 13:03:55;;;;;;;;;;;17.10;99.90;;;;;;5094797;28;19931;-79
2023/07/26 13:06:21;;;;;;;;;;;17.40;99.90;;;;;;5078186;28;19979;-80
2023/07/26 13:08:48;;;;;;;;;;;17.80;99.90;;;;;;5094224;28;19930;-79
2023/07/26 13:11:13;;;;;;;;;;;18.10;99.90;;;;;;5094465;28;20003;-81
2023/07/26 13:13:42;;;;;;;;;;;18.40;99.90;;;;;;5094350;28;19957;-79
2023/07/26 13:16:09;;;;;;;;;;;18.60;99.90;;;;;;5111229;28;19924;-78
2023/07/26 13:18:36;;;;;;;;;;;18.80;99.90;;;;;;5110799;28;20388;-82
2023/07/26 13:21:01;;;;;;;;;;;19.20;99.90;;;;;;5110887;28;20006;-79
2023/07/26 13:23:27;;;;;;;;;;;19.90;99.90;;;;;;5093711;28;20646;-78
2023/07/26 13:25:53;;;;;;;;;;;20.40;99.90;;;;;;5094347;28;19923;-81
2023/07/26 13:28:19;;;;;;;;;;;20.70;99.90;;;;;;5094043;28;20304;-81
2023/07/26 13:30:44;;;;;;;;;;;20.50;99.90;;;;;;5113048;28;20391;-80
2023/07/26 13:33:10;;;;;;;;;;;20.10;99.90;;;;;;5111468;28;20053;-78
2023/07/26 13:35:35;;;;;;;;;;;19.60;99.90;;;;;;5111767;28;19953;-80
2023/07/26 13:38:01;;;;;;;;;;;19.20;99.90;;;;;;5077957;28;20307;-80
2023/07/26 13:40:26;;;;;;;;;;;19.30;99.90;;;;;;5094322;28;19924;-80
2023/07/26 13:42:53;;;;;;;;;;;19.70;99.90;;;;;;5095585;28;19923;-81
2023/07/26 13:45:19;;;;;;;;;;;20.10;99.90;;;;;;5098352;28;19923;-81
2023/07/26 13:47:46;;;;;;;;;;;20.40;99.90;;;;;;5098319;28;19920;-82
2023/07/26 13:50:12;;;;;;;;;;;20.40;99.90;;;;;;5114941;28;20403;-78
2023/07/26 13:52:38;;;;;;;;;;;20.20;99.90;;;;;;5097824;28;19919;-80
2023/07/26 13:55:04;;;;;;;;;;;20.00;99.90;;;;;;5099082;28;19924;-79
2023/07/26 13:57:30;;;;;;;;;;;20.20;99.90;;;;;;5116134;28;19946;-80
2023/07/26 13:59:59;;;;;;;;;;;20.50;99.90;;;;;;5117989;28;19981;-82
2023/07/26 14:02:26;;;;;;;;;;;20.80;99.90;;;;;;5115824;28;19963;-76
2023/07/26 14:04:52;;;;;;;;;;;21.20;99.90;;;;;;5114258;28;20720;-79
2023/07/26 14:07:18;;;;;;;;;;;21.60;99.90;;;;;;5099669;28;19969;-79
2023/07/26 14:09:47;;;;;;;;;;;21.80;99.90;;;;;;5115093;28;19935;-81
2023/07/26 14:12:15;;;;;;;;;;;22.00;99.90;;;;;;5114876;28;19924;-78
2023/07/26 14:14:41;;;;;;;;;;;22.50;99.90;;;;;;5097538;28;19920;-80
2023/07/26 14:17:06;;;;;;;;;;;22.20;99.90;;;;;;5115809;28;19935;-81
2023/07/26 14:19:32;;;;;;;;;;;22.50;99.90;;;;;;5098601;28;19924;-76